Time;durP1;ratioP1;P1;durP2;ratioP2;P2;SDS_P1;SDS_P2;PMS_P1;PMS_P2;Temp;Humidity;BMP_temperature;BMP_pressure;BME280_temperature;BME280_humidity;BME280_pressure;Samples;Min_cycle;Max_cycle;Signal;HPM_P1;HPM_P2
2022/01/11 00:01:57;;;;;;;1.13;0.60;;;;;;;;;;5027812;28;20110;-72
2022/01/11 00:04:29;;;;;;;2.03;0.57;;;;;;;;;;5030244;28;20128;-72
2022/01/11 00:06:56;;;;;;;1.90;0.53;;;;;;;;;;5032720;28;20028;-73
2022/01/11 00:09:33;;;;;;;2.17;0.63;;;;;;;;;;5030110;28;20069;-74
2022/01/11 00:12:00;;;;;;;0.60;0.37;;;;;;;;;;5032569;28;20021;-73
2022/01/11 00:14:28;;;;;;;0.40;0.40;;;;;;;;;;5032443;28;20495;-73
2022/01/11 00:16:55;;;;;;;0.90;0.50;;;;;;;;;;5028302;28;20017;-72
2022/01/11 00:19:22;;;;;;;0.70;0.50;;;;;;;;;;5027247;28;20037;-74
2022/01/11 00:21:49;;;;;;;2.80;0.60;;;;;;;;;;5027299;28;20053;-73
2022/01/11 00:24:29;;;;;;;2.90;1.37;;;;;;;;;;5027221;28;20138;-73
2022/01/11 00:27:04;;;;;;;5.00;2.63;;;;;;;;;;5031184;28;20049;-72
2022/01/11 00:29:31;;;;;;;6.55;2.90;;;;;;;;;;5031955;28;20068;-73
2022/01/11 00:32:04;;;;;;;3.47;1.63;;;;;;;;;;5032377;28;20029;-73
2022/01/11 00:34:40;;;;;;;5.20;1.30;;;;;;;;;;5031771;28;20112;-73
2022/01/11 00:37:08;;;;;;;2.17;0.90;;;;;;;;;;5032358;28;20476;-73
2022/01/11 00:39:35;;;;;;;1.80;0.83;;;;;;;;;;5027237;28;20033;-73
2022/01/11 00:42:01;;;;;;;2.23;1.20;;;;;;;;;;5026862;28;20036;-73
2022/01/11 00:44:28;;;;;;;2.00;0.90;;;;;;;;;;5027152;28;20030;-72
2022/01/11 00:46:55;;;;;;;2.20;1.10;;;;;;;;;;5026485;28;20379;-72
2022/01/11 00:49:22;;;;;;;1.07;0.63;;;;;;;;;;5031252;28;20021;-73
2022/01/11 00:51:48;;;;;;;4.20;0.90;;;;;;;;;;5032152;28;20022;-73
2022/01/11 00:54:15;;;;;;;2.43;1.30;;;;;;;;;;5033056;28;20029;-73
2022/01/11 00:56:42;;;;;;;2.33;1.17;;;;;;;;;;5035972;28;20419;-73
2022/01/11 00:59:09;;;;;;;2.33;1.00;;;;;;;;;;5028534;28;20502;-72
2022/01/11 01:01:37;;;;;;;1.27;0.63;;;;;;;;;;5034391;28;20040;-73
2022/01/11 01:04:08;;;;;;;1.87;0.97;;;;;;;;;;5050951;28;20028;-73
2022/01/11 01:06:37;;;;;;;1.83;0.80;;;;;;;;;;5050927;28;20052;-74
2022/01/11 01:09:04;;;;;;;1.07;0.70;;;;;;;;;;5049801;28;20071;-73
2022/01/11 01:11:31;;;;;;;1.97;0.53;;;;;;;;;;5025638;28;20022;-72
2022/01/11 01:13:58;;;;;;;0.97;0.50;;;;;;;;;;5016048;28;20022;-72
2022/01/11 01:16:25;;;;;;;2.43;0.60;;;;;;;;;;5016108;28;20084;-72
2022/01/11 01:18:51;;;;;;;0.53;0.43;;;;;;;;;;5015930;28;20384;-73
2022/01/11 01:21:18;;;;;;;0.87;0.60;;;;;;;;;;5015711;28;20038;-72
2022/01/11 01:23:46;;;;;;;0.70;0.60;;;;;;;;;;5011491;28;20076;-72
2022/01/11 01:26:14;;;;;;;0.60;0.40;;;;;;;;;;4993580;28;20793;-72
2022/01/11 01:28:41;;;;;;;0.87;0.53;;;;;;;;;;5010913;28;20026;-71
2022/01/11 01:31:08;;;;;;;0.40;0.40;;;;;;;;;;5010814;28;20091;-72
2022/01/11 01:33:35;;;;;;;6.63;0.50;;;;;;;;;;5014130;28;20111;-72
2022/01/11 01:36:04;;;;;;;1.77;0.60;;;;;;;;;;5015687;28;20026;-71
2022/01/11 01:38:33;;;;;;;0.67;0.40;;;;;;;;;;4998035;28;20420;-72
2022/01/11 01:41:12;;;;;;;1.80;0.53;;;;;;;;;;5050803;28;20041;-71
2022/01/11 01:43:39;;;;;;;0.50;0.40;;;;;;;;;;5042453;28;20030;-71
2022/01/11 01:46:06;;;;;;;0.57;0.40;;;;;;;;;;5030575;28;20017;-71
2022/01/11 01:48:35;;;;;;;1.13;0.57;;;;;;;;;;5030129;28;20025;-71
2022/01/11 01:51:03;;;;;;;0.60;0.30;;;;;;;;;;5030037;28;20035;-72
2022/01/11 01:53:29;;;;;;;1.20;0.40;;;;;;;;;;5030174;28;20025;-72
2022/01/11 01:55:57;;;;;;;1.03;0.80;;;;;;;;;;5033987;28;20029;-71
2022/01/11 01:58:25;;;;;;;1.13;0.27;;;;;;;;;;5034964;28;20532;-72
2022/01/11 02:01:02;;;;;;;0.53;0.30;;;;;;;;;;5034994;28;20101;-70
2022/01/11 02:03:30;;;;;;;0.10;0.10;;;;;;;;;;5034887;28;20025;-71
2022/01/11 02:05:57;;;;;;;1.47;0.30;;;;;;;;;;5033859;28;20028;-71
2022/01/11 02:08:25;;;;;;;0.63;0.20;;;;;;;;;;5029224;28;20034;-71
2022/01/11 02:10:53;;;;;;;3.10;0.37;;;;;;;;;;5029772;28;20423;-72
2022/01/11 02:13:20;;;;;;;0.50;0.30;;;;;;;;;;5029815;28;20021;-71
2022/01/11 02:15:46;;;;;;;0.93;0.30;;;;;;;;;;5029764;28;20029;-71
2022/01/11 02:18:15;;;;;;;0.50;0.30;;;;;;;;;;5034063;28;20033;-72
2022/01/11 02:20:45;;;;;;;1.20;0.40;;;;;;;;;;5034538;28;20033;-72
2022/01/11 02:23:12;;;;;;;0.57;0.20;;;;;;;;;;5034233;28;20018;-72
2022/01/11 02:25:40;;;;;;;0.43;0.30;;;;;;;;;;5034644;28;20040;-71
2022/01/11 02:28:07;;;;;;;1.03;0.30;;;;;;;;;;5034615;28;20400;-72
2022/01/11 02:30:34;;;;;;;0.50;0.30;;;;;;;;;;5029283;28;20026;-71
2022/01/11 02:33:04;;;;;;;0.47;0.37;;;;;;;;;;5029488;28;20029;-72
2022/01/11 02:35:51;;;;;;;1.50;0.40;;;;;;;;;;5029366;28;20076;-72
2022/01/11 02:38:18;;;;;;;0.63;0.30;;;;;;;;;;5029297;28;20430;-71
2022/01/11 02:40:45;;;;;;;1.80;0.30;;;;;;;;;;5034004;28;20116;-71
2022/01/11 02:43:12;;;;;;;0.90;0.30;;;;;;;;;;5034260;28;20056;-71
2022/01/11 02:45:39;;;;;;;0.50;0.20;;;;;;;;;;5034084;28;20056;-71
2022/01/11 02:48:05;;;;;;;0.30;0.27;;;;;;;;;;5024409;28;20026;-71
2022/01/11 02:50:32;;;;;;;0.23;0.23;;;;;;;;;;5014050;28;20376;-71
2022/01/11 02:52:59;;;;;;;0.30;0.20;;;;;;;;;;5009100;28;20026;-71
2022/01/11 02:55:25;;;;;;;0.83;0.30;;;;;;;;;;5009344;28;20014;-71
2022/01/11 02:57:52;;;;;;;0.30;0.20;;;;;;;;;;5008896;28;20049;-73
2022/01/11 03:00:21;;;;;;;0.67;0.20;;;;;;;;;;5008998;28;20089;-72
2022/01/11 03:02:48;;;;;;;2.87;0.30;;;;;;;;;;5013833;28;20061;-71
2022/01/11 03:05:15;;;;;;;0.30;0.27;;;;;;;;;;5013730;28;20053;-71
2022/01/11 03:07:42;;;;;;;0.13;0.13;;;;;;;;;;5014051;28;20378;-72
2022/01/11 03:12:59;;;;;;;0.10;0.10;;;;;;;;;;5032766;28;20045;-72
2022/01/11 03:15:26;;;;;;;0.77;0.30;;;;;;;;;;5028185;28;20392;-71
2022/01/11 03:17:52;;;;;;;0.40;0.17;;;;;;;;;;5028349;28;20383;-71
2022/01/11 03:20:19;;;;;;;0.20;0.10;;;;;;;;;;5028468;28;20764;-71
2022/01/11 03:22:45;;;;;;;0.33;0.10;;;;;;;;;;5028578;28;20048;-71
2022/01/11 03:25:32;;;;;;;0.93;0.13;;;;;;;;;;5033186;28;20045;-72
2022/01/11 03:27:59;;;;;;;0.00;0.00;;;;;;;;;;5032849;28;20035;-72
2022/01/11 03:30:26;;;;;;;0.33;0.20;;;;;;;;;;5033237;28;20048;-72
2022/01/11 03:32:53;;;;;;;0.30;0.20;;;;;;;;;;5033113;28;20469;-71
2022/01/11 03:35:19;;;;;;;0.97;0.27;;;;;;;;;;5031984;28;20076;-72
2022/01/11 03:37:47;;;;;;;0.03;0.03;;;;;;;;;;5027992;28;20109;-73
2022/01/11 03:40:16;;;;;;;0.40;0.13;;;;;;;;;;5027972;28;20029;-73
2022/01/11 03:42:42;;;;;;;0.40;0.20;;;;;;;;;;5027847;28;20057;-71
2022/01/11 03:45:10;;;;;;;0.10;0.10;;;;;;;;;;5028112;28;20034;-69
2022/01/11 03:47:37;;;;;;;0.40;0.20;;;;;;;;;;5031633;28;20014;-69
2022/01/11 03:50:07;;;;;;;0.30;0.20;;;;;;;;;;5032685;28;20057;-70
2022/01/11 03:52:35;;;;;;;1.60;0.40;;;;;;;;;;5032445;28;20029;-68
2022/01/11 03:55:05;;;;;;;0.17;0.10;;;;;;;;;;5032665;28;20057;-67
2022/01/11 03:57:33;;;;;;;1.03;0.30;;;;;;;;;;5031142;28;20025;-70
2022/01/11 04:00:01;;;;;;;0.20;0.20;;;;;;;;;;5027727;28;20894;-69
2022/01/11 04:02:28;;;;;;;0.63;0.27;;;;;;;;;;5027814;28;20033;-66
2022/01/11 04:04:55;;;;;;;0.73;0.40;;;;;;;;;;5027690;28;20018;-66
2022/01/11 04:07:27;;;;;;;0.50;0.20;;;;;;;;;;5028365;28;20027;-66
2022/01/11 04:09:54;;;;;;;1.80;0.30;;;;;;;;;;5026454;28;20049;-67
2022/01/11 04:12:21;;;;;;;0.60;0.30;;;;;;;;;;5032106;28;20029;-68
2022/01/11 04:14:48;;;;;;;2.87;0.40;;;;;;;;;;5032246;28;20778;-67
2022/01/11 04:17:16;;;;;;;0.40;0.30;;;;;;;;;;5032275;28;20503;-67
2022/01/11 04:19:42;;;;;;;0.60;0.40;;;;;;;;;;5030743;28;20426;-67
2022/01/11 04:22:09;;;;;;;0.47;0.30;;;;;;;;;;5027120;28;20048;-66
2022/01/11 04:24:39;;;;;;;1.43;0.40;;;;;;;;;;5038716;28;20028;-67
2022/01/11 04:27:06;;;;;;;1.13;0.40;;;;;;;;;;5043496;28;20532;-68
2022/01/11 04:29:33;;;;;;;0.47;0.40;;;;;;;;;;5027112;28;20383;-67
2022/01/11 04:32:06;;;;;;;3.40;0.57;;;;;;;;;;5041934;28;20505;-67
2022/01/11 04:34:33;;;;;;;0.83;0.60;;;;;;;;;;5032162;28;20041;-68
2022/01/11 04:37:00;;;;;;;1.30;0.40;;;;;;;;;;5032110;28;20057;-68
2022/01/11 04:39:27;;;;;;;1.23;0.40;;;;;;;;;;5032884;28;20044;-67
2022/01/11 04:41:54;;;;;;;2.10;0.60;;;;;;;;;;5032539;28;20021;-69
2022/01/11 04:44:21;;;;;;;1.30;0.40;;;;;;;;;;5027149;28;20022;-67
2022/01/11 04:46:49;;;;;;;0.80;0.40;;;;;;;;;;5026833;28;20021;-68
2022/01/11 04:49:19;;;;;;;1.67;0.47;;;;;;;;;;5027164;28;20075;-68
2022/01/11 04:51:46;;;;;;;0.50;0.47;;;;;;;;;;5027504;28;20030;-67
2022/01/11 04:54:15;;;;;;;1.27;0.60;;;;;;;;;;5031857;28;20033;-68
2022/01/11 04:56:45;;;;;;;0.87;0.53;;;;;;;;;;5033715;28;20080;-67
2022/01/11 04:59:14;;;;;;;0.63;0.30;;;;;;;;;;5042712;28;20036;-67
2022/01/11 05:01:42;;;;;;;0.97;0.50;;;;;;;;;;5031952;28;20127;-67
2022/01/11 05:04:09;;;;;;;0.33;0.30;;;;;;;;;;5030830;28;20032;-68
2022/01/11 05:06:36;;;;;;;1.50;0.50;;;;;;;;;;5026768;28;20036;-67
2022/01/11 05:09:03;;;;;;;1.43;0.50;;;;;;;;;;5026597;28;20498;-67
2022/01/11 05:11:32;;;;;;;0.87;0.50;;;;;;;;;;5026479;28;20037;-68
2022/01/11 05:13:59;;;;;;;1.50;0.60;;;;;;;;;;5027025;28;20159;-68
2022/01/11 05:16:26;;;;;;;0.77;0.60;;;;;;;;;;5031923;28;20028;-68
2022/01/11 05:18:53;;;;;;;2.07;0.57;;;;;;;;;;5031682;28;20083;-67
2022/01/11 05:21:20;;;;;;;0.50;0.40;;;;;;;;;;5031514;28;20029;-67
2022/01/11 05:23:47;;;;;;;1.37;0.80;;;;;;;;;;5031750;28;20488;-67
2022/01/11 05:26:14;;;;;;;1.53;0.60;;;;;;;;;;5030479;28;20096;-68
2022/01/11 05:28:42;;;;;;;0.80;0.60;;;;;;;;;;5026885;28;20037;-67
2022/01/11 05:31:09;;;;;;;1.40;0.60;;;;;;;;;;5031413;28;20046;-67
2022/01/11 05:33:36;;;;;;;0.40;0.40;;;;;;;;;;5031434;28;20059;-68
2022/01/11 05:36:03;;;;;;;2.13;0.70;;;;;;;;;;5026661;28;20117;-67
2022/01/11 05:38:30;;;;;;;1.33;0.70;;;;;;;;;;5031608;28;20067;-69
2022/01/11 05:40:58;;;;;;;0.60;0.40;;;;;;;;;;5033696;28;20116;-68
2022/01/11 05:43:25;;;;;;;0.73;0.70;;;;;;;;;;5035218;28;20024;-67
2022/01/11 05:45:52;;;;;;;0.73;0.60;;;;;;;;;;5034908;28;20538;-68
2022/01/11 05:48:20;;;;;;;0.67;0.43;;;;;;;;;;5034581;28;20096;-67
2022/01/11 05:50:48;;;;;;;0.60;0.50;;;;;;;;;;5029556;28;20037;-67
2022/01/11 05:53:15;;;;;;;0.93;0.47;;;;;;;;;;5030078;28;20112;-67
2022/01/11 05:55:42;;;;;;;0.73;0.50;;;;;;;;;;5029886;28;20444;-67
2022/01/11 05:58:09;;;;;;;2.47;0.50;;;;;;;;;;5029697;28;20029;-67
2022/01/11 06:00:37;;;;;;;0.90;0.50;;;;;;;;;;5034746;28;20094;-67
2022/01/11 06:03:04;;;;;;;1.10;0.70;;;;;;;;;;5034914;28;20041;-68
2022/01/11 06:05:35;;;;;;;1.23;0.50;;;;;;;;;;5034614;28;20476;-68
2022/01/11 06:08:02;;;;;;;1.87;0.50;;;;;;;;;;5034566;28;20033;-67
2022/01/11 06:10:29;;;;;;;0.80;0.43;;;;;;;;;;5034413;28;20411;-67
2022/01/11 06:12:57;;;;;;;1.53;0.40;;;;;;;;;;5029449;28;20037;-68
2022/01/11 06:15:24;;;;;;;0.73;0.53;;;;;;;;;;5029361;28;20037;-67
2022/01/11 06:17:51;;;;;;;0.73;0.30;;;;;;;;;;5029258;28;20036;-68
2022/01/11 06:20:18;;;;;;;0.77;0.40;;;;;;;;;;5028959;28;20046;-67
2022/01/11 06:22:45;;;;;;;1.83;0.60;;;;;;;;;;5034006;28;20013;-67
2022/01/11 06:25:12;;;;;;;1.30;0.60;;;;;;;;;;5034156;28;20017;-67
2022/01/11 06:27:40;;;;;;;1.07;0.50;;;;;;;;;;5034100;28;20021;-67
2022/01/11 06:30:09;;;;;;;0.50;0.40;;;;;;;;;;5034507;28;20026;-67
2022/01/11 06:32:36;;;;;;;0.40;0.30;;;;;;;;;;5051180;28;20036;-67
2022/01/11 06:35:04;;;;;;;0.73;0.40;;;;;;;;;;5032141;28;20372;-68
2022/01/11 06:37:31;;;;;;;0.60;0.30;;;;;;;;;;5029494;28;20040;-67
2022/01/11 06:40:00;;;;;;;0.50;0.30;;;;;;;;;;5029048;28;20048;-67
2022/01/11 06:42:27;;;;;;;0.93;0.40;;;;;;;;;;5028333;28;20030;-68
2022/01/11 06:44:54;;;;;;;0.60;0.40;;;;;;;;;;5033645;28;20028;-67
2022/01/11 06:47:20;;;;;;;1.17;0.43;;;;;;;;;;5034387;28;20033;-66
2022/01/11 06:49:47;;;;;;;0.80;0.40;;;;;;;;;;5033836;28;20048;-66
2022/01/11 06:52:14;;;;;;;0.77;0.50;;;;;;;;;;5033681;28;20096;-66
2022/01/11 06:54:44;;;;;;;0.70;0.40;;;;;;;;;;5033683;28;20072;-65
2022/01/11 06:57:14;;;;;;;1.37;0.53;;;;;;;;;;5028270;28;20025;-68
2022/01/11 06:59:41;;;;;;;0.93;0.50;;;;;;;;;;5028898;28;20060;-68
2022/01/11 07:02:11;;;;;;;0.60;0.40;;;;;;;;;;5028351;28;20021;-67
2022/01/11 07:04:38;;;;;;;1.30;0.73;;;;;;;;;;5028688;28;20025;-68
2022/01/11 07:07:07;;;;;;;1.20;0.73;;;;;;;;;;5033037;28;20033;-68
2022/01/11 07:09:34;;;;;;;0.80;0.60;;;;;;;;;;5033452;28;20384;-67
2022/01/11 07:12:01;;;;;;;1.03;0.60;;;;;;;;;;5033394;28;20498;-68
2022/01/11 07:14:28;;;;;;;1.60;0.50;;;;;;;;;;5033247;28;20025;-68
2022/01/11 07:16:55;;;;;;;2.43;0.70;;;;;;;;;;5033096;28;20057;-68
2022/01/11 07:19:22;;;;;;;2.47;0.83;;;;;;;;;;5028226;28;20104;-67
2022/01/11 07:21:49;;;;;;;1.00;0.70;;;;;;;;;;5028187;28;20480;-67
2022/01/11 07:24:17;;;;;;;2.13;0.80;;;;;;;;;;5028325;28;20025;-68
2022/01/11 07:26:44;;;;;;;0.80;0.50;;;;;;;;;;5027720;28;20029;-68
2022/01/11 07:29:12;;;;;;;2.83;0.53;;;;;;;;;;5032910;28;20038;-69
2022/01/11 07:31:40;;;;;;;1.87;0.40;;;;;;;;;;5036899;28;20029;-68
2022/01/11 07:34:08;;;;;;;0.83;0.50;;;;;;;;;;5033343;28;20026;-68
2022/01/11 07:36:38;;;;;;;1.70;0.90;;;;;;;;;;5032993;28;20192;-68
2022/01/11 07:39:05;;;;;;;0.80;0.50;;;;;;;;;;5032626;28;20040;-68
2022/01/11 07:41:33;;;;;;;0.80;0.50;;;;;;;;;;5027216;28;20384;-67
2022/01/11 07:44:00;;;;;;;0.90;0.50;;;;;;;;;;5028072;28;20029;-67
2022/01/11 07:46:27;;;;;;;0.77;0.47;;;;;;;;;;5027685;28;20372;-68
2022/01/11 07:48:53;;;;;;;1.50;0.50;;;;;;;;;;5027396;28;20431;-68
2022/01/11 07:51:20;;;;;;;2.20;0.73;;;;;;;;;;5031940;28;20025;-67
2022/01/11 07:53:48;;;;;;;1.23;0.70;;;;;;;;;;5032815;28;20542;-68
2022/01/11 07:56:15;;;;;;;1.67;0.73;;;;;;;;;;5032196;28;20033;-67
2022/01/11 07:58:42;;;;;;;1.73;0.80;;;;;;;;;;5032653;28;20026;-67
2022/01/11 08:01:09;;;;;;;1.20;0.60;;;;;;;;;;5032437;28;20059;-68
2022/01/11 08:03:35;;;;;;;0.73;0.50;;;;;;;;;;5027309;28;20199;-68
2022/01/11 08:06:02;;;;;;;0.53;0.50;;;;;;;;;;5027410;28;20427;-68
2022/01/11 08:08:29;;;;;;;0.50;0.47;;;;;;;;;;5027410;28;20353;-67
2022/01/11 08:10:56;;;;;;;1.07;0.77;;;;;;;;;;5027444;28;20053;-67
2022/01/11 08:13:23;;;;;;;1.77;0.40;;;;;;;;;;5031104;28;20029;-68
2022/01/11 08:15:51;;;;;;;2.53;0.70;;;;;;;;;;5032280;28;20026;-67
2022/01/11 08:18:18;;;;;;;1.83;0.60;;;;;;;;;;5032483;28;20053;-67
2022/01/11 08:20:45;;;;;;;1.03;0.40;;;;;;;;;;5032502;28;20052;-67
2022/01/11 08:23:12;;;;;;;0.83;0.47;;;;;;;;;;5032469;28;20116;-67
2022/01/11 08:25:38;;;;;;;1.17;0.60;;;;;;;;;;5027869;28;20095;-67
2022/01/11 08:28:05;;;;;;;0.30;0.30;;;;;;;;;;5027061;28;20262;-69
2022/01/11 08:30:34;;;;;;;0.80;0.50;;;;;;;;;;5027439;28;20376;-67
2022/01/11 08:33:01;;;;;;;0.97;0.50;;;;;;;;;;5023928;28;20368;-68
2022/01/11 08:35:30;;;;;;;1.03;0.50;;;;;;;;;;5031514;28;20127;-67
2022/01/11 08:37:57;;;;;;;0.83;0.43;;;;;;;;;;5031575;28;20274;-67
2022/01/11 08:40:25;;;;;;;0.60;0.50;;;;;;;;;;5032000;28;20045;-67
2022/01/11 08:42:53;;;;;;;0.67;0.47;;;;;;;;;;5031857;28;20496;-67
2022/01/11 08:45:20;;;;;;;0.90;0.40;;;;;;;;;;5032242;28;20041;-67
2022/01/11 08:47:47;;;;;;;0.97;0.57;;;;;;;;;;5027365;28;20033;-68
2022/01/11 08:50:15;;;;;;;0.37;0.30;;;;;;;;;;5027142;28;20271;-67
2022/01/11 08:52:43;;;;;;;0.67;0.40;;;;;;;;;;5026884;28;20274;-69
2022/01/11 08:55:13;;;;;;;0.70;0.50;;;;;;;;;;5008328;28;20765;-67
2022/01/11 08:57:40;;;;;;;1.43;0.60;;;;;;;;;;5030281;28;20278;-67
2022/01/11 09:00:16;;;;;;;0.80;0.50;;;;;;;;;;5031688;28;20087;-68
2022/01/11 09:02:52;;;;;;;0.80;0.30;;;;;;;;;;5032028;28;20267;-67
2022/01/11 09:05:19;;;;;;;1.07;0.60;;;;;;;;;;5032044;28;20269;-67
2022/01/11 09:07:46;;;;;;;0.80;0.50;;;;;;;;;;5032223;28;20255;-67
2022/01/11 09:10:13;;;;;;;1.27;0.60;;;;;;;;;;5026655;28;20303;-67
2022/01/11 09:12:40;;;;;;;0.70;0.50;;;;;;;;;;5026201;28;20271;-67
2022/01/11 09:15:09;;;;;;;1.40;0.60;;;;;;;;;;5028034;28;20779;-67
2022/01/11 09:17:36;;;;;;;0.90;0.63;;;;;;;;;;5030715;28;20271;-68
2022/01/11 09:20:05;;;;;;;2.30;1.07;;;;;;;;;;5034640;28;20369;-67
2022/01/11 09:22:32;;;;;;;0.63;0.50;;;;;;;;;;5034754;28;20301;-67
2022/01/11 09:24:59;;;;;;;0.60;0.40;;;;;;;;;;5035811;28;20536;-67
2022/01/11 09:27:26;;;;;;;1.37;0.43;;;;;;;;;;5035711;28;20269;-68
2022/01/11 09:29:52;;;;;;;0.97;0.57;;;;;;;;;;5035382;28;20274;-67
2022/01/11 09:32:20;;;;;;;1.97;0.90;;;;;;;;;;5033317;28;20271;-67
2022/01/11 09:34:47;;;;;;;2.00;0.90;;;;;;;;;;5030357;28;20320;-67
2022/01/11 09:37:14;;;;;;;0.70;0.40;;;;;;;;;;5030422;28;20273;-67
2022/01/11 09:39:43;;;;;;;0.73;0.50;;;;;;;;;;5029769;28;20710;-67
2022/01/11 09:42:10;;;;;;;0.90;0.40;;;;;;;;;;5034282;28;20324;-67
2022/01/11 09:44:38;;;;;;;0.97;0.60;;;;;;;;;;5035160;28;20388;-67
2022/01/11 09:47:13;;;;;;;0.77;0.40;;;;;;;;;;5034599;28;20270;-67
2022/01/11 09:49:41;;;;;;;4.72;0.80;;;;;;;;;;5033056;28;20637;-67
2022/01/11 09:52:09;;;;;;;0.73;0.40;;;;;;;;;;5034096;28;20033;-67
2022/01/11 09:54:37;;;;;;;0.83;0.37;;;;;;;;;;5029702;28;20266;-68
2022/01/11 09:57:04;;;;;;;1.70;0.57;;;;;;;;;;5030025;28;20283;-67
2022/01/11 09:59:32;;;;;;;1.07;0.40;;;;;;;;;;5029961;28;20324;-67
2022/01/11 10:01:59;;;;;;;0.50;0.30;;;;;;;;;;5029569;28;21154;-67
2022/01/11 10:04:34;;;;;;;1.70;0.53;;;;;;;;;;5034066;28;20267;-69
2022/01/11 10:07:02;;;;;;;1.02;0.60;;;;;;;;;;5034387;28;20613;-67
2022/01/11 10:09:30;;;;;;;1.83;0.60;;;;;;;;;;5029447;28;20507;-67
2022/01/11 10:11:59;;;;;;;1.67;0.60;;;;;;;;;;5034701;28;20349;-67
2022/01/11 10:14:33;;;;;;;0.97;0.50;;;;;;;;;;5034598;28;20271;-67
2022/01/11 10:17:10;;;;;;;0.37;0.27;;;;;;;;;;5029621;28;20281;-68
2022/01/11 10:19:39;;;;;;;0.53;0.20;;;;;;;;;;5029645;28;20290;-67
2022/01/11 10:22:08;;;;;;;0.30;0.27;;;;;;;;;;5028793;28;20830;-67
2022/01/11 10:24:38;;;;;;;0.50;0.30;;;;;;;;;;5029654;28;20274;-68
2022/01/11 10:27:12;;;;;;;0.20;0.10;;;;;;;;;;5033306;28;20274;-67
2022/01/11 10:29:41;;;;;;;0.20;0.20;;;;;;;;;;5019218;28;20300;-67
2022/01/11 10:32:16;;;;;;;0.77;0.20;;;;;;;;;;5047509;28;20258;-67
2022/01/11 10:34:43;;;;;;;0.43;0.10;;;;;;;;;;5040380;28;20270;-67
2022/01/11 10:37:10;;;;;;;0.93;0.20;;;;;;;;;;5032030;28;20033;-67
2022/01/11 10:39:43;;;;;;;0.20;0.20;;;;;;;;;;5028992;28;20278;-68
2022/01/11 10:42:30;;;;;;;0.37;0.20;;;;;;;;;;5029280;28;20273;-67
2022/01/11 10:45:10;;;;;;;0.20;0.10;;;;;;;;;;5029019;28;20270;-67
2022/01/11 10:47:44;;;;;;;0.23;0.20;;;;;;;;;;5027046;28;20282;-67
2022/01/11 10:50:18;;;;;;;0.20;0.10;;;;;;;;;;5033533;28;20267;-69
2022/01/11 10:52:45;;;;;;;0.20;0.20;;;;;;;;;;5034158;28;20263;-67
2022/01/11 10:55:22;;;;;;;0.30;0.13;;;;;;;;;;5018214;28;20772;-67
2022/01/11 10:57:52;;;;;;;0.77;0.20;;;;;;;;;;5033588;28;20749;-67
2022/01/11 11:00:39;;;;;;;0.77;0.20;;;;;;;;;;5029962;28;20301;-67
2022/01/11 11:03:16;;;;;;;0.30;0.20;;;;;;;;;;5028825;28;20330;-67
2022/01/11 11:05:49;;;;;;;0.57;0.27;;;;;;;;;;5028605;28;20270;-67
2022/01/11 11:08:23;;;;;;;0.43;0.20;;;;;;;;;;5009069;28;20271;-66
2022/01/11 11:10:56;;;;;;;0.28;0.20;;;;;;;;;;5025712;28;20259;-68
2022/01/11 11:13:24;;;;;;;0.30;0.30;;;;;;;;;;5033742;28;20033;-67
2022/01/11 11:15:52;;;;;;;0.30;0.30;;;;;;;;;;5033421;28;20358;-68
2022/01/11 11:18:30;;;;;;;0.80;0.20;;;;;;;;;;5013642;28;20812;-67
2022/01/11 11:20:57;;;;;;;0.60;0.30;;;;;;;;;;5026924;28;20844;-68
2022/01/11 11:23:24;;;;;;;1.80;0.60;;;;;;;;;;5027989;28;20267;-68
2022/01/11 11:25:51;;;;;;;1.03;0.23;;;;;;;;;;5028062;28;20750;-68
2022/01/11 11:28:21;;;;;;;1.97;0.37;;;;;;;;;;5027980;28;20313;-68
2022/01/11 11:30:49;;;;;;;1.63;0.70;;;;;;;;;;5029825;28;20255;-67
2022/01/11 11:33:17;;;;;;;2.43;0.70;;;;;;;;;;5053162;28;20255;-67
2022/01/11 11:35:44;;;;;;;1.10;0.60;;;;;;;;;;5042492;28;20286;-67
2022/01/11 11:38:12;;;;;;;0.97;0.50;;;;;;;;;;5032662;28;20629;-68
2022/01/11 11:40:39;;;;;;;2.07;0.70;;;;;;;;;;5033064;28;20322;-67
2022/01/11 11:43:07;;;;;;;2.97;0.60;;;;;;;;;;5033001;28;20645;-67
2022/01/11 11:45:36;;;;;;;5.37;1.60;;;;;;;;;;5027294;28;20826;-67
2022/01/11 11:48:08;;;;;;;2.23;0.90;;;;;;;;;;5027869;28;20271;-67
2022/01/11 11:50:46;;;;;;;1.77;0.80;;;;;;;;;;5027657;28;20897;-67
2022/01/11 11:53:34;;;;;;;1.40;0.90;;;;;;;;;;5028034;28;20617;-67
2022/01/11 11:56:19;;;;;;;1.03;0.60;;;;;;;;;;5031879;28;20369;-67
2022/01/11 11:58:56;;;;;;;1.83;0.50;;;;;;;;;;5033234;28;20328;-67
2022/01/11 12:01:45;;;;;;;0.20;0.20;;;;;;;;;;5032093;28;20391;-67
2022/01/11 12:04:16;;;;;;;0.33;0.30;;;;;;;;;;5032584;28;20278;-67
2022/01/11 12:06:44;;;;;;;3.20;0.70;;;;;;;;;;5028924;28;20621;-69
2022/01/11 12:09:15;;;;;;;1.17;0.40;;;;;;;;;;5026587;28;20258;-67
2022/01/11 12:11:45;;;;;;;1.63;0.20;;;;;;;;;;5027408;28;20625;-68
2022/01/11 12:14:38;;;;;;;0.60;0.40;;;;;;;;;;5027601;28;20258;-67
2022/01/11 12:17:16;;;;;;;3.10;0.80;;;;;;;;;;5027717;28;20298;-67
2022/01/11 12:19:43;;;;;;;0.33;0.30;;;;;;;;;;5032099;28;20275;-67
2022/01/11 12:22:10;;;;;;;0.53;0.30;;;;;;;;;;5032266;28;20314;-67
2022/01/11 12:24:38;;;;;;;0.50;0.37;;;;;;;;;;5032313;28;20316;-67
2022/01/11 12:27:06;;;;;;;0.43;0.23;;;;;;;;;;5031733;28;20301;-68
2022/01/11 12:29:33;;;;;;;0.70;0.47;;;;;;;;;;5027605;28;20255;-68
2022/01/11 12:32:04;;;;;;;0.47;0.40;;;;;;;;;;5039209;28;20353;-67
2022/01/11 12:34:57;;;;;;;0.50;0.33;;;;;;;;;;5029035;28;20340;-67
2022/01/11 12:37:33;;;;;;;1.50;0.27;;;;;;;;;;4996334;28;20271;-65
2022/01/11 12:40:14;;;;;;;2.43;0.30;;;;;;;;;;5031941;28;20685;-68
2022/01/11 12:42:53;;;;;;;1.17;0.37;;;;;;;;;;5032249;28;20812;-68
2022/01/11 12:45:40;;;;;;;0.33;0.30;;;;;;;;;;5032003;28;20268;-67
2022/01/11 12:48:07;;;;;;;1.70;0.80;;;;;;;;;;5031783;28;20328;-67
2022/01/11 12:50:34;;;;;;;2.23;0.50;;;;;;;;;;5031513;28;20310;-68
2022/01/11 12:53:05;;;;;;;0.83;0.30;;;;;;;;;;5031191;28;20660;-67
2022/01/11 12:55:33;;;;;;;0.93;0.50;;;;;;;;;;5030754;28;20267;-68
2022/01/11 12:58:05;;;;;;;0.97;0.40;;;;;;;;;;5030524;28;20266;-68
2022/01/11 13:00:32;;;;;;;1.90;0.20;;;;;;;;;;5032856;28;20286;-67
2022/01/11 13:03:04;;;;;;;0.87;0.60;;;;;;;;;;5036124;28;20278;-67
2022/01/11 13:05:32;;;;;;;0.63;0.40;;;;;;;;;;5035845;28;20297;-68
2022/01/11 13:08:01;;;;;;;0.90;0.57;;;;;;;;;;5035691;28;20320;-67
2022/01/11 13:10:28;;;;;;;2.83;0.80;;;;;;;;;;5036206;28;20250;-67
2022/01/11 13:13:02;;;;;;;1.40;0.80;;;;;;;;;;5032358;28;20309;-67
2022/01/11 13:15:38;;;;;;;1.13;0.57;;;;;;;;;;5030985;28;20282;-69
2022/01/11 13:18:15;;;;;;;1.03;0.60;;;;;;;;;;5030380;28;20278;-67
2022/01/11 13:20:44;;;;;;;1.30;0.60;;;;;;;;;;5030559;28;20294;-66
2022/01/11 13:23:16;;;;;;;1.90;1.03;;;;;;;;;;5033643;28;20361;-67
2022/01/11 13:25:49;;;;;;;2.53;1.07;;;;;;;;;;5035281;28;20281;-67
2022/01/11 13:28:16;;;;;;;1.30;0.60;;;;;;;;;;5035407;28;20784;-67
2022/01/11 13:30:45;;;;;;;1.67;0.60;;;;;;;;;;5036545;28;20329;-67
2022/01/11 13:33:32;;;;;;;2.60;0.70;;;;;;;;;;5042408;28;20275;-67
2022/01/11 13:36:09;;;;;;;9.07;1.30;;;;;;;;;;5030546;28;20258;-67
2022/01/11 13:38:37;;;;;;;0.90;0.43;;;;;;;;;;5030183;28;20273;-67
2022/01/11 13:41:05;;;;;;;1.90;0.80;;;;;;;;;;5029837;28;20298;-67
2022/01/11 13:43:40;;;;;;;3.80;1.00;;;;;;;;;;5030131;28;20274;-67
2022/01/11 13:46:16;;;;;;;3.65;1.05;;;;;;;;;;5035169;28;20354;-67
2022/01/11 13:48:45;;;;;;;2.93;1.20;;;;;;;;;;5034904;28;20030;-67
2022/01/11 13:51:13;;;;;;;6.07;1.30;;;;;;;;;;5035293;28;20324;-67
2022/01/11 13:53:40;;;;;;;5.77;1.53;;;;;;;;;;5034599;28;20267;-67
2022/01/11 13:56:09;;;;;;;7.40;1.90;;;;;;;;;;5016497;28;21128;-67
2022/01/11 13:58:38;;;;;;;4.23;1.33;;;;;;;;;;5029909;28;20270;-68
2022/01/11 14:01:06;;;;;;;4.70;1.10;;;;;;;;;;5028486;28;20295;-67
2022/01/11 14:03:32;;;;;;;2.80;1.20;;;;;;;;;;5029331;28;20277;-67
2022/01/11 14:06:11;;;;;;;2.73;0.93;;;;;;;;;;5029985;28;20259;-67
2022/01/11 14:08:43;;;;;;;2.27;1.10;;;;;;;;;;5034686;28;20776;-67
2022/01/11 14:11:12;;;;;;;3.47;1.40;;;;;;;;;;5034313;28;20370;-68
2022/01/11 14:13:41;;;;;;;3.50;1.33;;;;;;;;;;5034787;28;20124;-67
2022/01/11 14:16:33;;;;;;;2.00;1.03;;;;;;;;;;5034429;28;20054;-68
2022/01/11 14:19:11;;;;;;;3.03;1.23;;;;;;;;;;5031679;28;20025;-68
2022/01/11 14:21:59;;;;;;;2.63;1.03;;;;;;;;;;5012925;28;20034;-68
2022/01/11 14:24:45;;;;;;;3.37;1.43;;;;;;;;;;5029297;28;20025;-67
2022/01/11 14:27:28;;;;;;;4.33;1.00;;;;;;;;;;5026189;28;20025;-68
2022/01/11 14:29:58;;;;;;;3.10;1.23;;;;;;;;;;5019636;28;20032;-67
2022/01/11 14:32:28;;;;;;;2.67;1.03;;;;;;;;;;5039110;28;20022;-67
2022/01/11 14:35:00;;;;;;;3.37;1.27;;;;;;;;;;5034383;28;20025;-67
2022/01/11 14:37:32;;;;;;;2.00;1.03;;;;;;;;;;5034287;28;20057;-68
2022/01/11 14:40:00;;;;;;;3.53;0.90;;;;;;;;;;5033816;28;20036;-67
2022/01/11 14:42:28;;;;;;;2.73;1.30;;;;;;;;;;5028879;28;20095;-67
2022/01/11 14:44:59;;;;;;;1.93;0.90;;;;;;;;;;5029038;28;20419;-67
2022/01/11 14:47:26;;;;;;;2.00;0.70;;;;;;;;;;5029012;28;20082;-68
2022/01/11 14:49:53;;;;;;;4.30;1.20;;;;;;;;;;5028421;28;20033;-67
2022/01/11 14:52:21;;;;;;;2.33;0.77;;;;;;;;;;5032517;28;20502;-68
2022/01/11 14:54:53;;;;;;;3.23;1.20;;;;;;;;;;5033597;28;20488;-68
2022/01/11 14:57:21;;;;;;;6.30;1.90;;;;;;;;;;5033242;28;20022;-67
2022/01/11 14:59:48;;;;;;;5.07;1.30;;;;;;;;;;5033930;28;20045;-67